createdAt,value
2023-03-16T00:01:48.915Z,7.68
2023-03-16T00:04:15.760Z,5.30
2023-03-16T00:06:42.680Z,6.28
2023-03-16T00:09:10.208Z,4.28
2023-03-16T00:11:37.129Z,4.43
2023-03-16T00:14:04.387Z,5.28
2023-03-16T00:16:31.684Z,4.18
2023-03-16T00:18:59.469Z,3.65
2023-03-16T00:21:26.452Z,4.55
2023-03-16T00:23:53.790Z,4.35
2023-03-16T00:26:21.199Z,4.03
2023-03-16T00:28:48.745Z,6.43
2023-03-16T00:31:20.497Z,3.92
2023-03-16T00:33:47.507Z,5.78
2023-03-16T00:36:16.912Z,2.85
2023-03-16T00:38:47.614Z,2.50
2023-03-16T00:41:19.251Z,3.58
2023-03-16T00:43:46.292Z,4.47
2023-03-16T00:46:16.383Z,7.78
2023-03-16T00:48:46.570Z,4.10
2023-03-16T00:51:17.512Z,5.80
2023-03-16T00:53:47.130Z,2.50
2023-03-16T00:56:14.882Z,5.57
2023-03-16T00:58:43.543Z,3.83
2023-03-16T01:01:21.156Z,4.40
2023-03-16T01:03:48.721Z,3.92
2023-03-16T01:06:17.617Z,5.28
2023-03-16T01:08:44.895Z,2.10
2023-03-16T01:11:18.961Z,3.58
2023-03-16T01:13:49.894Z,5.80
2023-03-16T01:16:19.217Z,4.45
2023-03-16T01:18:46.973Z,4.32
2023-03-16T01:21:15.771Z,4.50
2023-03-16T01:23:44.477Z,3.87
2023-03-16T01:26:31.510Z,4.55
2023-03-16T01:29:03.017Z,4.65
2023-03-16T01:31:32.075Z,8.90
2023-03-16T01:33:59.096Z,3.35
2023-03-16T01:36:26.140Z,2.50
2023-03-16T01:38:52.993Z,3.70
2023-03-16T01:41:19.904Z,4.45
2023-03-16T01:43:47.581Z,3.22
2023-03-16T01:46:19.900Z,4.28
2023-03-16T01:49:08.636Z,3.67
2023-03-16T01:51:46.204Z,4.00
2023-03-16T01:54:41.088Z,3.67
2023-03-16T01:57:23.805Z,3.35
2023-03-16T02:00:20.862Z,3.30
2023-03-16T02:02:58.459Z,2.53
2023-03-16T02:05:33.896Z,3.30
2023-03-16T02:08:03.538Z,3.37
2023-03-16T02:10:33.977Z,4.35
2023-03-16T02:13:01.911Z,4.68
2023-03-16T02:15:29.499Z,3.50
2023-03-16T02:18:00.948Z,3.58
2023-03-16T02:20:48.841Z,3.87
2023-03-16T02:23:18.957Z,4.15
2023-03-16T02:26:04.167Z,5.20
2023-03-16T02:29:01.485Z,5.47
2023-03-16T02:31:28.683Z,3.85
2023-03-16T02:33:56.704Z,5.82
2023-03-16T02:36:23.579Z,5.47
2023-03-16T02:38:50.617Z,5.53
2023-03-16T02:41:21.183Z,5.05
2023-03-16T02:44:00.349Z,8.50
2023-03-16T02:46:29.521Z,6.45
2023-03-16T02:49:20.058Z,7.18
2023-03-16T02:51:47.345Z,6.22
2023-03-16T02:54:14.515Z,10.02
2023-03-16T02:56:42.255Z,5.15
2023-03-16T02:59:09.592Z,4.53
2023-03-16T03:01:36.879Z,7.22
2023-03-16T03:04:05.926Z,5.65
2023-03-16T03:06:35.212Z,6.18
2023-03-16T03:09:04.715Z,9.40
2023-03-16T03:11:32.295Z,7.40
2023-03-16T03:14:00.266Z,7.72
2023-03-16T03:16:28.829Z,7.12
2023-03-16T03:18:55.964Z,7.32
2023-03-16T03:21:24.434Z,6.07
2023-03-16T03:23:51.629Z,6.53
2023-03-16T03:26:18.655Z,10.35
2023-03-16T03:28:46.077Z,8.70
2023-03-16T03:31:18.302Z,8.85
2023-03-16T03:33:45.536Z,7.30
2023-03-16T03:36:14.129Z,7.90
2023-03-16T03:38:41.910Z,7.55
2023-03-16T03:41:10.227Z,8.07
2023-03-16T03:43:39.225Z,12.73
2023-03-16T03:46:07.742Z,8.88
2023-03-16T03:48:35.954Z,6.28
2023-03-16T03:51:03.053Z,6.85
2023-03-16T03:53:48.500Z,6.45
2023-03-16T03:56:15.851Z,8.02
2023-03-16T03:58:43.090Z,7.20
2023-03-16T04:01:10.152Z,9.40
2023-03-16T04:03:37.475Z,6.10
2023-03-16T04:06:07.390Z,7.60
2023-03-16T04:08:35.364Z,6.87
2023-03-16T04:11:02.336Z,7.62
2023-03-16T04:13:31.813Z,8.43
2023-03-16T04:16:03.433Z,8.50
2023-03-16T04:18:41.130Z,8.38
2023-03-16T04:21:13.901Z,8.40
2023-03-16T04:23:40.821Z,7.45
2023-03-16T04:26:13.548Z,8.40
2023-03-16T04:28:41.024Z,8.02
2023-03-16T04:31:10.406Z,10.18
2023-03-16T04:33:39.425Z,8.25
2023-03-16T04:36:07.337Z,9.70
2023-03-16T04:38:34.583Z,8.40
2023-03-16T04:41:03.120Z,8.80
2023-03-16T04:43:34.610Z,9.48
2023-03-16T04:46:02.447Z,10.30
2023-03-16T04:48:30.793Z,10.60
2023-03-16T04:51:05.087Z,10.23
2023-03-16T04:53:32.873Z,10.20
2023-03-16T04:56:00.157Z,10.30
2023-03-16T04:58:28.785Z,9.65
2023-03-16T05:00:58.164Z,7.90
2023-03-16T05:03:25.671Z,11.77
2023-03-16T05:05:55.153Z,9.07
2023-03-16T05:08:22.136Z,10.18
2023-03-16T05:11:09.044Z,9.63
2023-03-16T05:13:40.404Z,11.27
2023-03-16T05:16:08.112Z,13.05
2023-03-16T05:18:36.804Z,16.75
2023-03-16T05:21:04.126Z,9.57
2023-03-16T05:23:31.772Z,9.52
2023-03-16T05:26:00.113Z,14.07
2023-03-16T05:28:28.345Z,10.38
2023-03-16T05:30:56.656Z,9.27
2023-03-16T05:33:26.438Z,9.45
2023-03-16T05:35:53.912Z,11.40
2023-03-16T05:38:20.957Z,14.50
2023-03-16T05:40:53.676Z,14.13
2023-03-16T05:43:21.875Z,15.05
2023-03-16T05:45:49.835Z,10.18
2023-03-16T05:48:21.687Z,14.48
2023-03-16T05:50:50.971Z,14.60
2023-03-16T05:53:18.412Z,12.60
2023-03-16T05:55:45.798Z,13.32
2023-03-16T05:58:12.782Z,14.70
2023-03-16T06:00:40.010Z,18.25
2023-03-16T06:03:07.622Z,12.45
2023-03-16T06:05:34.668Z,14.87
2023-03-16T06:08:02.877Z,9.90
2023-03-16T06:10:30.392Z,10.35
2023-03-16T06:12:59.790Z,10.90
2023-03-16T06:15:30.368Z,14.80
2023-03-16T06:17:57.358Z,15.30
2023-03-16T06:20:24.526Z,11.48
2023-03-16T06:22:51.666Z,15.77
2023-03-16T06:25:18.918Z,12.25
2023-03-16T06:27:48.653Z,14.57
2023-03-16T06:32:43.296Z,11.35
2023-03-16T06:35:10.622Z,13.40
2023-03-16T06:37:38.042Z,12.70
2023-03-16T06:40:05.972Z,11.15
2023-03-16T06:42:33.894Z,12.52
2023-03-16T06:45:01.333Z,9.57
2023-03-16T06:47:28.371Z,10.30
2023-03-16T06:49:55.594Z,12.75
2023-03-16T06:52:23.077Z,10.02
2023-03-16T06:54:50.388Z,12.82
2023-03-16T06:57:18.120Z,9.55
2023-03-16T06:59:45.232Z,12.25
2023-03-16T07:02:18.356Z,8.98
2023-03-16T07:04:49.858Z,8.95
2023-03-16T07:07:22.320Z,11.50
2023-03-16T07:09:49.540Z,10.70
2023-03-16T07:12:18.165Z,9.15
2023-03-16T07:14:48.803Z,12.48
2023-03-16T07:17:19.696Z,9.82
2023-03-16T07:19:47.345Z,8.27
2023-03-16T07:22:16.157Z,10.73
2023-03-16T07:24:44.624Z,9.87
2023-03-16T07:27:12.654Z,9.23
2023-03-16T07:29:39.797Z,10.18
2023-03-16T07:32:09.088Z,9.63
2023-03-16T07:34:36.065Z,14.55
2023-03-16T07:37:05.152Z,12.20
2023-03-16T07:39:34.224Z,9.40
2023-03-16T07:42:01.763Z,10.40
2023-03-16T07:44:29.063Z,12.02
2023-03-16T07:46:58.129Z,9.57
2023-03-16T07:49:25.217Z,10.35
2023-03-16T07:51:52.178Z,9.15
2023-03-16T07:54:19.454Z,9.30
2023-03-16T07:56:49.633Z,8.52
2023-03-16T07:59:17.624Z,9.57
2023-03-16T08:01:46.518Z,11.65
2023-03-16T08:04:13.682Z,10.88
2023-03-16T08:06:43.106Z,23.27
2023-03-16T08:09:10.173Z,32.05
2023-03-16T08:11:37.193Z,11.77
2023-03-16T08:14:04.419Z,12.00
2023-03-16T08:16:32.100Z,11.00
2023-03-16T08:19:01.957Z,18.52
2023-03-16T08:23:57.668Z,12.52
2023-03-16T08:26:25.175Z,23.33
2023-03-16T08:28:53.228Z,18.62
2023-03-16T08:31:21.894Z,26.42
2023-03-16T08:33:50.001Z,17.30
2023-03-16T08:36:18.662Z,10.90
2023-03-16T08:39:03.826Z,16.87
2023-03-16T08:41:38.910Z,22.33
2023-03-16T08:44:08.118Z,13.07
2023-03-16T08:46:35.882Z,18.02
2023-03-16T08:49:03.130Z,21.05
2023-03-16T08:51:30.226Z,19.62
2023-03-16T08:53:57.348Z,10.70
2023-03-16T08:56:24.367Z,11.73
2023-03-16T08:58:51.667Z,8.52
2023-03-16T09:01:19.837Z,7.68
2023-03-16T09:03:49.356Z,8.70
2023-03-16T09:06:17.478Z,8.48
2023-03-16T09:08:48.244Z,7.85
2023-03-16T09:11:17.949Z,10.82
2023-03-16T09:13:45.480Z,7.15
2023-03-16T09:16:14.089Z,8.77
2023-03-16T09:18:46.408Z,9.00
2023-03-16T09:21:16.264Z,13.65
2023-03-16T09:26:12.714Z,6.68
2023-03-16T09:28:42.394Z,11.65
2023-03-16T09:31:10.553Z,3.92
2023-03-16T09:33:37.413Z,5.37
2023-03-16T09:36:04.726Z,7.47
2023-03-16T09:38:33.725Z,5.57
2023-03-16T09:41:07.666Z,5.53
2023-03-16T09:44:03.105Z,6.95
2023-03-16T09:46:42.575Z,7.37
2023-03-16T09:49:17.975Z,4.50
2023-03-16T09:52:06.444Z,7.30
2023-03-16T09:54:46.385Z,5.85
2023-03-16T09:57:34.986Z,4.40
2023-03-16T10:00:20.337Z,7.05
2023-03-16T10:03:25.173Z,8.13
2023-03-16T10:06:01.277Z,5.55
2023-03-16T10:08:45.376Z,7.20
2023-03-16T10:11:28.314Z,6.18
2023-03-16T10:14:17.904Z,8.98
2023-03-16T10:16:54.086Z,9.98
2023-03-16T10:19:30.952Z,11.98
2023-03-16T10:22:00.966Z,14.60
2023-03-16T10:24:37.122Z,9.65
2023-03-16T10:27:07.883Z,11.18
2023-03-16T10:29:37.273Z,9.15
2023-03-16T10:32:19.356Z,5.68
2023-03-16T10:34:57.402Z,9.38
2023-03-16T10:37:34.098Z,5.75
2023-03-16T10:40:00.968Z,9.18
2023-03-16T10:42:28.198Z,6.93
2023-03-16T10:45:03.288Z,5.47
2023-03-16T10:47:34.129Z,5.68
2023-03-16T10:50:17.053Z,6.12
2023-03-16T10:52:48.103Z,7.12
2023-03-16T10:55:26.177Z,5.90
2023-03-16T10:57:55.942Z,14.02
2023-03-16T11:00:27.363Z,8.10
2023-03-16T11:02:56.137Z,7.00
2023-03-16T11:05:29.883Z,5.25
2023-03-16T11:08:15.573Z,10.73
2023-03-16T11:10:56.283Z,8.45
2023-03-16T11:13:26.647Z,7.47
2023-03-16T11:16:04.909Z,5.72
2023-03-16T11:18:49.882Z,8.45
2023-03-16T11:21:34.364Z,6.10
2023-03-16T11:24:06.565Z,6.37
2023-03-16T11:26:36.393Z,5.95
2023-03-16T11:31:54.180Z,9.38
2023-03-16T11:34:35.393Z,6.03
2023-03-16T11:37:17.190Z,12.88
2023-03-16T11:40:02.521Z,6.25
2023-03-16T11:42:32.143Z,6.37
2023-03-16T11:45:30.881Z,6.25
2023-03-16T11:48:06.622Z,6.60
2023-03-16T11:51:06.059Z,7.65
2023-03-16T11:53:42.839Z,7.75
2023-03-16T11:56:18.674Z,7.90
2023-03-16T11:59:03.383Z,6.30
2023-03-16T12:02:00.764Z,5.62
2023-03-16T12:04:47.589Z,7.55
2023-03-16T12:07:55.028Z,5.75
2023-03-16T12:10:36.694Z,5.50
2023-03-16T12:13:20.369Z,5.37
2023-03-16T12:16:01.257Z,8.32
2023-03-16T12:18:43.842Z,8.23
2023-03-16T12:21:19.988Z,7.90
2023-03-16T12:24:03.102Z,8.20
2023-03-16T12:26:35.917Z,6.70
2023-03-16T12:29:46.022Z,6.68
2023-03-16T12:32:24.761Z,7.25
2023-03-16T12:34:54.718Z,10.45
2023-03-16T12:37:29.891Z,12.00
2023-03-16T12:40:28.470Z,6.57
2023-03-16T12:43:19.137Z,6.03
2023-03-16T12:45:52.102Z,9.50
2023-03-16T12:48:25.358Z,7.15
2023-03-16T12:50:55.946Z,6.15
2023-03-16T12:53:58.070Z,6.65
2023-03-16T12:56:34.346Z,4.57
2023-03-16T12:59:10.007Z,6.75
2023-03-16T13:01:44.787Z,8.90
2023-03-16T13:04:18.453Z,5.18
2023-03-16T13:06:51.479Z,6.30
2023-03-16T13:09:29.800Z,7.57
2023-03-16T13:11:57.307Z,7.37
2023-03-16T13:14:42.851Z,8.32
2023-03-16T13:17:16.057Z,5.80
2023-03-16T13:19:48.910Z,5.57
2023-03-16T13:22:22.177Z,4.68
2023-03-16T13:24:59.979Z,8.63
2023-03-16T13:27:30.288Z,5.62
2023-03-16T13:30:00.059Z,5.87
2023-03-16T13:32:32.404Z,4.78
2023-03-16T13:35:02.455Z,7.47
2023-03-16T13:37:33.006Z,5.53
2023-03-16T13:40:02.374Z,9.73
2023-03-16T13:42:35.953Z,14.40
2023-03-16T13:45:15.490Z,8.68
2023-03-16T13:47:44.877Z,7.78
2023-03-16T13:50:14.292Z,12.93
2023-03-16T13:52:44.426Z,12.77
2023-03-16T13:55:18.137Z,13.77
2023-03-16T13:57:46.530Z,5.65
2023-03-16T14:00:21.389Z,13.62
2023-03-16T14:02:57.709Z,7.32
2023-03-16T14:05:32.175Z,8.98
2023-03-16T14:08:01.208Z,7.60
2023-03-16T14:10:34.702Z,5.53
2023-03-16T14:13:29.462Z,7.53
2023-03-16T14:16:00.333Z,7.07
2023-03-16T14:18:34.777Z,8.07
2023-03-16T14:21:10.069Z,8.27
2023-03-16T14:23:43.616Z,8.82
2023-03-16T14:26:14.344Z,10.32
2023-03-16T14:28:42.713Z,30.73
2023-03-16T14:31:15.057Z,6.50
2023-03-16T14:33:45.030Z,6.97
2023-03-16T14:38:50.915Z,12.77
2023-03-16T14:41:24.185Z,11.23
2023-03-16T14:44:01.971Z,14.87
2023-03-16T14:46:42.765Z,5.85
2023-03-16T14:49:21.484Z,2.83
2023-03-16T14:51:51.321Z,8.10
2023-03-16T14:56:52.614Z,11.05
2023-03-16T14:59:20.632Z,9.80
2023-03-16T15:01:49.807Z,6.10
2023-03-16T15:04:22.980Z,8.43
2023-03-16T15:06:50.184Z,11.12
2023-03-16T15:09:28.270Z,4.80
2023-03-16T15:11:57.683Z,8.95
2023-03-16T15:14:59.000Z,7.50
2023-03-16T15:17:26.260Z,7.15
2023-03-16T15:19:53.601Z,5.87
2023-03-16T15:22:28.832Z,7.00
2023-03-16T15:24:58.371Z,7.28
2023-03-16T15:27:33.717Z,7.72
2023-03-16T15:30:01.062Z,12.55
2023-03-16T15:32:28.043Z,6.95
2023-03-16T15:34:57.094Z,6.03
2023-03-16T15:37:27.871Z,4.27
2023-03-16T15:39:55.041Z,8.75
2023-03-16T15:42:22.949Z,9.77
2023-03-16T15:44:50.721Z,9.35
2023-03-16T15:47:17.758Z,7.22
2023-03-16T15:49:48.340Z,9.77
2023-03-16T15:52:32.744Z,10.27
2023-03-16T15:55:06.699Z,7.78
2023-03-16T15:57:35.220Z,8.75
2023-03-16T16:00:02.612Z,8.07
2023-03-16T16:02:32.285Z,7.25
2023-03-16T16:04:59.672Z,7.37
2023-03-16T16:07:27.477Z,8.98
2023-03-16T16:09:54.532Z,7.85
2023-03-16T16:12:27.126Z,11.82
2023-03-16T16:14:58.511Z,9.80
2023-03-16T16:17:47.953Z,10.32
2023-03-16T16:20:20.851Z,6.05
2023-03-16T16:22:47.774Z,8.30
2023-03-16T16:25:14.890Z,16.87
2023-03-16T16:27:44.129Z,14.45
2023-03-16T16:30:27.698Z,22.98
2023-03-16T16:32:56.902Z,15.13
2023-03-16T16:37:54.365Z,12.13
2023-03-16T16:40:33.167Z,8.30
2023-03-16T16:43:05.297Z,16.30
2023-03-16T16:45:32.229Z,18.05
2023-03-16T16:47:59.773Z,18.85
2023-03-16T16:50:27.840Z,22.67
2023-03-16T16:52:55.522Z,13.05
2023-03-16T16:55:23.715Z,13.70
2023-03-16T16:57:54.557Z,14.32
2023-03-16T17:00:24.098Z,15.13
2023-03-16T17:02:53.933Z,18.15
2023-03-16T17:07:51.313Z,20.50
2023-03-16T17:10:21.572Z,24.20
2023-03-16T17:12:50.939Z,37.42
2023-03-16T17:15:27.173Z,47.62
2023-03-16T17:18:03.264Z,47.70
2023-03-16T17:20:30.512Z,40.70
2023-03-16T17:22:59.060Z,39.97
2023-03-16T17:25:26.637Z,39.78
2023-03-16T17:27:56.695Z,41.42
2023-03-16T17:30:30.430Z,42.50
2023-03-16T17:33:04.912Z,36.53
2023-03-16T17:35:32.195Z,40.92
2023-03-16T17:37:59.613Z,67.00
2023-03-16T17:40:26.697Z,102.15
2023-03-16T17:42:56.177Z,71.55
2023-03-16T17:45:27.158Z,61.85
2023-03-16T17:47:55.505Z,39.88
2023-03-16T17:50:30.056Z,42.58
2023-03-16T17:52:57.283Z,57.42
2023-03-16T17:55:25.068Z,58.67
2023-03-16T17:57:54.521Z,42.58
2023-03-16T18:00:25.225Z,47.30
2023-03-16T18:02:56.714Z,49.55
2023-03-16T18:05:30.262Z,38.45
2023-03-16T18:08:02.095Z,31.08
2023-03-16T18:10:31.694Z,23.55
2023-03-16T18:15:32.138Z,30.45
2023-03-16T18:18:00.688Z,26.30
2023-03-16T18:20:34.939Z,56.15
2023-03-16T18:23:10.609Z,187.40
2023-03-16T18:25:39.552Z,107.63
2023-03-16T18:28:08.307Z,87.27
2023-03-16T18:30:38.083Z,92.47
2023-03-16T18:33:08.251Z,92.32
2023-03-16T18:35:37.929Z,98.35
2023-03-16T18:38:17.202Z,88.22
2023-03-16T18:40:44.288Z,90.20
2023-03-16T18:43:17.106Z,92.57
2023-03-16T18:45:46.646Z,88.28
2023-03-16T18:48:33.798Z,63.15
2023-03-16T18:51:02.239Z,55.47
2023-03-16T18:53:29.817Z,25.40
2023-03-16T18:55:57.645Z,41.37
2023-03-16T18:58:36.561Z,27.90
2023-03-16T19:01:04.209Z,29.45
2023-03-16T19:03:34.892Z,34.90
2023-03-16T19:06:02.411Z,39.45
2023-03-16T19:08:29.826Z,36.33
2023-03-16T19:11:00.960Z,25.55
2023-03-16T19:13:27.976Z,26.45
2023-03-16T19:15:58.124Z,26.15
2023-03-16T19:18:26.386Z,29.35
2023-03-16T19:20:55.623Z,25.55
2023-03-16T19:23:31.016Z,27.15
2023-03-16T19:25:58.853Z,24.40
2023-03-16T19:28:36.831Z,24.55
2023-03-16T19:31:11.977Z,38.80
2023-03-16T19:33:39.071Z,27.20
2023-03-16T19:36:07.199Z,16.42
2023-03-16T19:38:34.173Z,19.12
2023-03-16T19:41:01.285Z,13.73
2023-03-16T19:43:29.103Z,9.00
2023-03-16T19:45:56.947Z,12.20
2023-03-16T19:48:34.447Z,10.25
2023-03-16T19:51:02.259Z,13.20
2023-03-16T19:53:29.463Z,14.63
2023-03-16T19:55:56.477Z,20.92
2023-03-16T19:58:38.791Z,17.45
2023-03-16T20:01:13.484Z,18.85
2023-03-16T20:03:40.469Z,21.37
2023-03-16T20:06:12.542Z,18.95
2023-03-16T20:08:39.916Z,22.05
2023-03-16T20:11:14.162Z,19.12
2023-03-16T20:13:41.342Z,24.77
2023-03-16T20:16:13.653Z,72.50
2023-03-16T20:18:40.618Z,56.35
2023-03-16T20:21:07.725Z,43.33
2023-03-16T20:23:39.555Z,64.35
2023-03-16T20:26:15.849Z,49.92
2023-03-16T20:28:43.516Z,62.80
2023-03-16T20:31:23.049Z,46.10
2023-03-16T20:33:52.529Z,43.87
2023-03-16T20:36:21.565Z,38.47
2023-03-16T20:38:49.334Z,37.83
2023-03-16T20:41:36.505Z,26.37
2023-03-16T20:44:03.873Z,20.75
2023-03-16T20:46:33.651Z,18.33
2023-03-16T20:49:02.239Z,23.27
2023-03-16T20:51:29.224Z,21.25
2023-03-16T20:53:56.404Z,24.50
2023-03-16T20:56:28.760Z,29.95
2023-03-16T20:59:00.137Z,24.15
2023-03-16T21:01:27.538Z,18.40
2023-03-16T21:03:57.095Z,18.27
2023-03-16T21:06:30.165Z,19.87
2023-03-16T21:08:59.844Z,15.18
2023-03-16T21:11:35.127Z,15.07
2023-03-16T21:14:02.582Z,15.02
2023-03-16T21:16:30.477Z,17.40
2023-03-16T21:18:57.737Z,14.63
2023-03-16T21:21:25.158Z,14.93
2023-03-16T21:23:52.135Z,14.40
2023-03-16T21:26:22.532Z,14.98
2023-03-16T21:29:02.283Z,16.08
2023-03-16T21:33:56.525Z,19.30
2023-03-16T21:36:26.977Z,24.20
2023-03-16T21:38:55.483Z,18.00
2023-03-16T21:41:22.840Z,19.87
2023-03-16T21:43:50.427Z,14.35
2023-03-16T21:46:25.773Z,23.08
2023-03-16T21:48:56.145Z,15.23
2023-03-16T21:51:28.709Z,16.65
2023-03-16T21:53:55.631Z,17.48
2023-03-16T21:56:26.298Z,17.80
2023-03-16T21:58:54.707Z,16.48
2023-03-16T22:01:27.826Z,15.80
2023-03-16T22:04:01.995Z,21.27
2023-03-16T22:06:29.352Z,32.17
2023-03-16T22:09:21.255Z,21.20
2023-03-16T22:11:52.994Z,25.27
2023-03-16T22:14:22.371Z,24.58
2023-03-16T22:16:49.674Z,13.23
2023-03-16T22:19:18.120Z,14.10
2023-03-16T22:21:55.462Z,16.02
2023-03-16T22:24:26.732Z,15.98
2023-03-16T22:26:54.799Z,18.42
2023-03-16T22:29:28.548Z,19.02
2023-03-16T22:32:04.388Z,17.20
2023-03-16T22:34:47.332Z,19.73
2023-03-16T22:37:18.860Z,16.70
2023-03-16T22:39:45.861Z,21.23
2023-03-16T22:42:39.918Z,31.35
2023-03-16T22:45:21.730Z,14.25
2023-03-16T22:47:48.858Z,17.80
2023-03-16T22:50:17.015Z,16.15
2023-03-16T22:52:45.764Z,15.50
2023-03-16T22:55:22.615Z,13.82
2023-03-16T22:57:51.844Z,15.35
2023-03-16T23:00:21.559Z,15.32
2023-03-16T23:05:22.654Z,12.90
2023-03-16T23:07:49.638Z,13.32
2023-03-16T23:10:18.681Z,15.30
2023-03-16T23:12:45.817Z,15.25
2023-03-16T23:15:19.945Z,13.65
2023-03-16T23:17:46.991Z,14.50
2023-03-16T23:20:29.418Z,25.67
2023-03-16T23:22:56.605Z,12.93
2023-03-16T23:25:24.403Z,13.75
2023-03-16T23:27:52.926Z,14.27
2023-03-16T23:30:23.649Z,12.40
2023-03-16T23:32:53.371Z,16.00
2023-03-16T23:37:52.098Z,11.15
2023-03-16T23:40:20.459Z,11.50
2023-03-16T23:42:49.167Z,12.02
2023-03-16T23:45:30.761Z,11.82
2023-03-16T23:48:01.418Z,13.65
2023-03-16T23:50:31.636Z,14.15
2023-03-16T23:52:59.220Z,12.27
2023-03-16T23:55:26.899Z,12.95
2023-03-16T23:57:54.217Z,14.60
